sensor_id;sensor_type;location;lat;lon;timestamp;temperature;humidity
26589;DHT22;14235;48.532;8.722;2023-06-19T00:01:43;21.90;88.30
26589;DHT22;14235;48.532;8.722;2023-06-19T00:04:10;22.00;88.60
26589;DHT22;14235;48.532;8.722;2023-06-19T00:06:36;21.90;88.90
26589;DHT22;14235;48.532;8.722;2023-06-19T00:09:01;21.90;88.90
26589;DHT22;14235;48.532;8.722;2023-06-19T00:11:27;21.90;88.70
26589;DHT22;14235;48.532;8.722;2023-06-19T00:13:53;21.80;89.10
26589;DHT22;14235;48.532;8.722;2023-06-19T00:16:19;21.60;90.00
26589;DHT22;14235;48.532;8.722;2023-06-19T00:18:45;21.50;90.10
26589;DHT22;14235;48.532;8.722;2023-06-19T00:21:10;21.50;90.60
26589;DHT22;14235;48.532;8.722;2023-06-19T00:23:36;21.50;90.70
26589;DHT22;14235;48.532;8.722;2023-06-19T00:26:02;21.50;90.90
26589;DHT22;14235;48.532;8.722;2023-06-19T00:28:29;21.00;90.80
26589;DHT22;14235;48.532;8.722;2023-06-19T00:30:55;21.40;91.20
26589;DHT22;14235;48.532;8.722;2023-06-19T00:33:20;21.40;91.30
26589;DHT22;14235;48.532;8.722;2023-06-19T00:35:47;21.30;91.70
26589;DHT22;14235;48.532;8.722;2023-06-19T00:38:13;21.30;92.20
26589;DHT22;14235;48.532;8.722;2023-06-19T00:40:39;21.20;92.10
26589;DHT22;14235;48.532;8.722;2023-06-19T00:43:06;21.20;92.20
26589;DHT22;14235;48.532;8.722;2023-06-19T00:45:32;21.30;92.30
26589;DHT22;14235;48.532;8.722;2023-06-19T00:47:59;21.20;92.50
26589;DHT22;14235;48.532;8.722;2023-06-19T00:50:25;20.90;94.30
26589;DHT22;14235;48.532;8.722;2023-06-19T00:52:51;20.80;93.30
26589;DHT22;14235;48.532;8.722;2023-06-19T00:55:17;20.80;92.70
26589;DHT22;14235;48.532;8.722;2023-06-19T00:57:43;21.00;92.30
26589;DHT22;14235;48.532;8.722;2023-06-19T01:00:10;21.10;92.20
26589;DHT22;14235;48.532;8.722;2023-06-19T01:02:38;21.20;92.50
26589;DHT22;14235;48.532;8.722;2023-06-19T01:05:04;21.30;92.20
26589;DHT22;14235;48.532;8.722;2023-06-19T01:10:42;21.50;92.20
26589;DHT22;14235;48.532;8.722;2023-06-19T01:15:49;21.60;92.40
26589;DHT22;14235;48.532;8.722;2023-06-19T01:18:15;21.80;91.10
26589;DHT22;14235;48.532;8.722;2023-06-19T01:20:41;21.80;90.00
26589;DHT22;14235;48.532;8.722;2023-06-19T01:23:08;21.80;84.20
26589;DHT22;14235;48.532;8.722;2023-06-19T01:25:33;21.90;90.10
26589;DHT22;14235;48.532;8.722;2023-06-19T01:27:59;21.90;90.00
26589;DHT22;14235;48.532;8.722;2023-06-19T01:30:24;21.90;82.90
26589;DHT22;14235;48.532;8.722;2023-06-19T01:33:15;21.90;83.70
26589;DHT22;14235;48.532;8.722;2023-06-19T01:35:44;21.90;84.20
26589;DHT22;14235;48.532;8.722;2023-06-19T01:38:12;21.90;84.80
26589;DHT22;14235;48.532;8.722;2023-06-19T01:40:38;22.00;85.50
26589;DHT22;14235;48.532;8.722;2023-06-19T01:43:05;22.00;86.20
26589;DHT22;14235;48.532;8.722;2023-06-19T01:45:32;21.90;86.40
26589;DHT22;14235;48.532;8.722;2023-06-19T01:47:58;22.00;86.80
26589;DHT22;14235;48.532;8.722;2023-06-19T01:50:24;21.90;87.10
26589;DHT22;14235;48.532;8.722;2023-06-19T01:52:50;22.00;87.80
26589;DHT22;14235;48.532;8.722;2023-06-19T01:55:16;22.00;87.70
26589;DHT22;14235;48.532;8.722;2023-06-19T01:57:42;21.90;88.30
26589;DHT22;14235;48.532;8.722;2023-06-19T02:00:08;21.90;89.00
26589;DHT22;14235;48.532;8.722;2023-06-19T02:02:38;21.90;90.20
26589;DHT22;14235;48.532;8.722;2023-06-19T02:05:04;21.90;90.50
26589;DHT22;14235;48.532;8.722;2023-06-19T02:07:30;21.80;91.00
26589;DHT22;14235;48.532;8.722;2023-06-19T02:09:56;21.80;91.40
26589;DHT22;14235;48.532;8.722;2023-06-19T02:12:22;21.80;92.00
26589;DHT22;14235;48.532;8.722;2023-06-19T02:14:47;21.80;93.40
26589;DHT22;14235;48.532;8.722;2023-06-19T02:17:13;21.80;93.90
26589;DHT22;14235;48.532;8.722;2023-06-19T02:19:39;21.60;94.60
26589;DHT22;14235;48.532;8.722;2023-06-19T02:22:05;21.60;95.30
26589;DHT22;14235;48.532;8.722;2023-06-19T02:24:31;21.40;96.60
26589;DHT22;14235;48.532;8.722;2023-06-19T02:26:57;21.30;97.30
26589;DHT22;14235;48.532;8.722;2023-06-19T02:29:23;21.10;98.30
26589;DHT22;14235;48.532;8.722;2023-06-19T02:31:49;21.10;98.90
26589;DHT22;14235;48.532;8.722;2023-06-19T02:34:15;21.10;99.00
26589;DHT22;14235;48.532;8.722;2023-06-19T02:36:40;21.10;99.80
26589;DHT22;14235;48.532;8.722;2023-06-19T02:39:06;21.10;99.90
26589;DHT22;14235;48.532;8.722;2023-06-19T02:41:32;21.10;99.90
26589;DHT22;14235;48.532;8.722;2023-06-19T02:43:58;21.00;99.90
26589;DHT22;14235;48.532;8.722;2023-06-19T02:46:23;21.00;99.90
26589;DHT22;14235;48.532;8.722;2023-06-19T02:48:49;20.90;99.90
26589;DHT22;14235;48.532;8.722;2023-06-19T02:51:15;21.00;99.90
26589;DHT22;14235;48.532;8.722;2023-06-19T02:53:40;20.90;99.90
26589;DHT22;14235;48.532;8.722;2023-06-19T02:56:07;20.90;99.90
26589;DHT22;14235;48.532;8.722;2023-06-19T02:58:33;20.90;97.70
26589;DHT22;14235;48.532;8.722;2023-06-19T03:01:00;20.80;97.10
26589;DHT22;14235;48.532;8.722;2023-06-19T03:03:25;20.70;99.90
26589;DHT22;14235;48.532;8.722;2023-06-19T03:05:51;20.60;99.20
26589;DHT22;14235;48.532;8.722;2023-06-19T03:08:16;20.60;99.60
26589;DHT22;14235;48.532;8.722;2023-06-19T03:10:42;20.50;99.90
26589;DHT22;14235;48.532;8.722;2023-06-19T03:13:08;20.50;98.80
26589;DHT22;14235;48.532;8.722;2023-06-19T03:15:33;20.50;98.60
26589;DHT22;14235;48.532;8.722;2023-06-19T03:17:59;20.40;99.80
26589;DHT22;14235;48.532;8.722;2023-06-19T03:20:24;20.50;99.60
26589;DHT22;14235;48.532;8.722;2023-06-19T03:22:50;20.40;99.80
26589;DHT22;14235;48.532;8.722;2023-06-19T03:25:15;20.40;99.90
26589;DHT22;14235;48.532;8.722;2023-06-19T03:27:41;20.40;99.90
26589;DHT22;14235;48.532;8.722;2023-06-19T03:30:08;20.40;99.90
26589;DHT22;14235;48.532;8.722;2023-06-19T03:32:34;20.30;99.90
26589;DHT22;14235;48.532;8.722;2023-06-19T03:35:00;20.30;99.90
26589;DHT22;14235;48.532;8.722;2023-06-19T03:37:26;20.30;99.90
26589;DHT22;14235;48.532;8.722;2023-06-19T03:39:52;20.30;99.90
26589;DHT22;14235;48.532;8.722;2023-06-19T03:42:17;20.20;99.90
26589;DHT22;14235;48.532;8.722;2023-06-19T03:44:43;20.20;99.90
26589;DHT22;14235;48.532;8.722;2023-06-19T03:47:08;20.20;97.60
26589;DHT22;14235;48.532;8.722;2023-06-19T03:49:34;20.10;97.50
26589;DHT22;14235;48.532;8.722;2023-06-19T03:52:00;20.20;97.50
26589;DHT22;14235;48.532;8.722;2023-06-19T03:54:26;20.10;97.50
26589;DHT22;14235;48.532;8.722;2023-06-19T03:56:52;20.10;97.70
26589;DHT22;14235;48.532;8.722;2023-06-19T03:59:18;20.10;98.50
26589;DHT22;14235;48.532;8.722;2023-06-19T04:01:43;20.10;99.00
26589;DHT22;14235;48.532;8.722;2023-06-19T04:04:09;20.10;99.50
26589;DHT22;14235;48.532;8.722;2023-06-19T04:06:34;20.00;99.70
26589;DHT22;14235;48.532;8.722;2023-06-19T04:09:00;20.00;99.80
26589;DHT22;14235;48.532;8.722;2023-06-19T04:11:26;20.10;99.90
26589;DHT22;14235;48.532;8.722;2023-06-19T04:13:51;20.20;99.90
26589;DHT22;14235;48.532;8.722;2023-06-19T04:16:17;20.10;99.90
26589;DHT22;14235;48.532;8.722;2023-06-19T04:18:42;20.00;99.90
26589;DHT22;14235;48.532;8.722;2023-06-19T04:21:08;19.90;99.90
26589;DHT22;14235;48.532;8.722;2023-06-19T04:23:33;20.10;99.90
26589;DHT22;14235;48.532;8.722;2023-06-19T04:25:59;20.00;99.90
26589;DHT22;14235;48.532;8.722;2023-06-19T04:28:25;20.10;99.90
26589;DHT22;14235;48.532;8.722;2023-06-19T04:30:51;20.20;99.90
26589;DHT22;14235;48.532;8.722;2023-06-19T04:33:26;20.20;99.90
26589;DHT22;14235;48.532;8.722;2023-06-19T04:35:52;20.30;99.90
26589;DHT22;14235;48.532;8.722;2023-06-19T04:38:17;20.30;99.90
26589;DHT22;14235;48.532;8.722;2023-06-19T04:40:43;20.30;99.90
26589;DHT22;14235;48.532;8.722;2023-06-19T04:43:08;20.40;99.90
26589;DHT22;14235;48.532;8.722;2023-06-19T04:45:34;20.30;99.90
26589;DHT22;14235;48.532;8.722;2023-06-19T04:48:00;20.30;99.90
26589;DHT22;14235;48.532;8.722;2023-06-19T04:50:28;20.40;99.90
26589;DHT22;14235;48.532;8.722;2023-06-19T04:52:54;20.40;99.90
26589;DHT22;14235;48.532;8.722;2023-06-19T04:55:19;20.40;99.90
26589;DHT22;14235;48.532;8.722;2023-06-19T04:57:45;20.40;99.90
26589;DHT22;14235;48.532;8.722;2023-06-19T05:00:11;20.40;99.90
26589;DHT22;14235;48.532;8.722;2023-06-19T05:02:36;20.50;99.90
26589;DHT22;14235;48.532;8.722;2023-06-19T05:05:02;20.60;99.90
26589;DHT22;14235;48.532;8.722;2023-06-19T05:07:31;20.50;99.90
26589;DHT22;14235;48.532;8.722;2023-06-19T05:10:00;20.60;99.90
26589;DHT22;14235;48.532;8.722;2023-06-19T05:12:25;20.60;99.90
26589;DHT22;14235;48.532;8.722;2023-06-19T05:14:51;20.70;99.90
26589;DHT22;14235;48.532;8.722;2023-06-19T05:17:16;20.70;99.90
26589;DHT22;14235;48.532;8.722;2023-06-19T05:19:42;20.70;99.90
26589;DHT22;14235;48.532;8.722;2023-06-19T05:22:08;20.70;99.90
26589;DHT22;14235;48.532;8.722;2023-06-19T05:24:33;20.70;99.90
26589;DHT22;14235;48.532;8.722;2023-06-19T05:26:59;20.70;99.90
26589;DHT22;14235;48.532;8.722;2023-06-19T05:29:24;20.80;99.90
26589;DHT22;14235;48.532;8.722;2023-06-19T05:31:50;20.60;99.90
26589;DHT22;14235;48.532;8.722;2023-06-19T05:34:16;20.70;99.90
26589;DHT22;14235;48.532;8.722;2023-06-19T05:36:41;20.60;99.90
26589;DHT22;14235;48.532;8.722;2023-06-19T05:39:12;20.60;99.90
26589;DHT22;14235;48.532;8.722;2023-06-19T05:41:38;20.70;99.90
26589;DHT22;14235;48.532;8.722;2023-06-19T05:44:04;20.70;99.90
26589;DHT22;14235;48.532;8.722;2023-06-19T05:46:29;20.80;99.90
26589;DHT22;14235;48.532;8.722;2023-06-19T05:48:55;20.70;99.90
26589;DHT22;14235;48.532;8.722;2023-06-19T05:51:20;20.90;99.80
26589;DHT22;14235;48.532;8.722;2023-06-19T05:53:46;20.90;99.90
26589;DHT22;14235;48.532;8.722;2023-06-19T05:56:12;20.90;99.80
26589;DHT22;14235;48.532;8.722;2023-06-19T05:58:38;20.90;99.90
26589;DHT22;14235;48.532;8.722;2023-06-19T06:01:04;20.90;99.90
26589;DHT22;14235;48.532;8.722;2023-06-19T06:03:30;21.00;99.50
26589;DHT22;14235;48.532;8.722;2023-06-19T06:05:57;21.00;99.60
26589;DHT22;14235;48.532;8.722;2023-06-19T06:08:28;21.10;99.40
26589;DHT22;14235;48.532;8.722;2023-06-19T06:10:54;21.10;99.40
26589;DHT22;14235;48.532;8.722;2023-06-19T06:13:20;21.10;99.40
26589;DHT22;14235;48.532;8.722;2023-06-19T06:15:45;21.20;99.30
26589;DHT22;14235;48.532;8.722;2023-06-19T06:18:11;21.20;99.20
26589;DHT22;14235;48.532;8.722;2023-06-19T06:20:36;21.30;99.30
26589;DHT22;14235;48.532;8.722;2023-06-19T06:23:02;21.30;99.30
26589;DHT22;14235;48.532;8.722;2023-06-19T06:25:28;21.30;99.30
26589;DHT22;14235;48.532;8.722;2023-06-19T06:27:54;21.30;99.40
26589;DHT22;14235;48.532;8.722;2023-06-19T06:30:19;21.40;99.30
26589;DHT22;14235;48.532;8.722;2023-06-19T06:32:45;21.30;99.20
26589;DHT22;14235;48.532;8.722;2023-06-19T06:35:11;21.30;99.10
26589;DHT22;14235;48.532;8.722;2023-06-19T06:37:36;21.50;99.40
26589;DHT22;14235;48.532;8.722;2023-06-19T06:40:02;21.30;99.30
26589;DHT22;14235;48.532;8.722;2023-06-19T06:42:30;21.30;99.40
26589;DHT22;14235;48.532;8.722;2023-06-19T06:44:56;21.30;99.50
26589;DHT22;14235;48.532;8.722;2023-06-19T06:47:21;21.30;99.70
26589;DHT22;14235;48.532;8.722;2023-06-19T06:49:47;21.40;99.60
26589;DHT22;14235;48.532;8.722;2023-06-19T06:52:12;21.40;99.60
26589;DHT22;14235;48.532;8.722;2023-06-19T06:54:38;21.40;99.70
26589;DHT22;14235;48.532;8.722;2023-06-19T06:57:04;21.40;99.90
26589;DHT22;14235;48.532;8.722;2023-06-19T06:59:30;21.40;99.90
26589;DHT22;14235;48.532;8.722;2023-06-19T07:01:57;21.40;99.90
26589;DHT22;14235;48.532;8.722;2023-06-19T07:04:23;21.50;99.90
26589;DHT22;14235;48.532;8.722;2023-06-19T07:06:48;21.50;99.90
26589;DHT22;14235;48.532;8.722;2023-06-19T07:09:14;21.60;99.90
26589;DHT22;14235;48.532;8.722;2023-06-19T07:11:40;21.50;99.90
26589;DHT22;14235;48.532;8.722;2023-06-19T07:14:06;21.70;99.90
26589;DHT22;14235;48.532;8.722;2023-06-19T07:16:31;21.80;99.90
26589;DHT22;14235;48.532;8.722;2023-06-19T07:18:57;21.90;98.20
26589;DHT22;14235;48.532;8.722;2023-06-19T07:21:23;21.90;98.10
26589;DHT22;14235;48.532;8.722;2023-06-19T07:23:49;22.00;97.90
26589;DHT22;14235;48.532;8.722;2023-06-19T07:26:15;22.00;97.90
26589;DHT22;14235;48.532;8.722;2023-06-19T07:28:41;22.10;97.90
26589;DHT22;14235;48.532;8.722;2023-06-19T07:31:07;22.20;98.10
26589;DHT22;14235;48.532;8.722;2023-06-19T07:33:33;22.20;97.30
26589;DHT22;14235;48.532;8.722;2023-06-19T07:35:58;22.40;96.90
26589;DHT22;14235;48.532;8.722;2023-06-19T07:38:24;22.50;97.00
26589;DHT22;14235;48.532;8.722;2023-06-19T07:40:50;22.60;96.80
26589;DHT22;14235;48.532;8.722;2023-06-19T07:43:16;22.60;96.70
26589;DHT22;14235;48.532;8.722;2023-06-19T07:45:42;22.70;96.40
26589;DHT22;14235;48.532;8.722;2023-06-19T07:48:08;22.70;96.00
26589;DHT22;14235;48.532;8.722;2023-06-19T07:50:33;22.90;96.00
26589;DHT22;14235;48.532;8.722;2023-06-19T07:52:59;22.90;95.70
26589;DHT22;14235;48.532;8.722;2023-06-19T07:55:25;22.90;95.70
26589;DHT22;14235;48.532;8.722;2023-06-19T07:57:50;22.90;95.30
26589;DHT22;14235;48.532;8.722;2023-06-19T08:00:17;22.90;95.20
26589;DHT22;14235;48.532;8.722;2023-06-19T08:02:43;22.90;95.00
26589;DHT22;14235;48.532;8.722;2023-06-19T08:05:09;23.00;94.80
26589;DHT22;14235;48.532;8.722;2023-06-19T08:07:36;22.90;94.70
26589;DHT22;14235;48.532;8.722;2023-06-19T08:10:02;22.90;94.80
26589;DHT22;14235;48.532;8.722;2023-06-19T08:12:29;22.90;95.00
26589;DHT22;14235;48.532;8.722;2023-06-19T08:14:55;22.90;94.70
26589;DHT22;14235;48.532;8.722;2023-06-19T08:17:20;23.00;96.40
26589;DHT22;14235;48.532;8.722;2023-06-19T08:19:47;22.90;97.40
26589;DHT22;14235;48.532;8.722;2023-06-19T08:22:12;22.90;95.30
26589;DHT22;14235;48.532;8.722;2023-06-19T08:24:38;23.00;95.10
26589;DHT22;14235;48.532;8.722;2023-06-19T08:27:06;23.00;94.50
26589;DHT22;14235;48.532;8.722;2023-06-19T08:29:32;23.00;94.80
26589;DHT22;14235;48.532;8.722;2023-06-19T08:31:58;23.00;93.40
26589;DHT22;14235;48.532;8.722;2023-06-19T08:34:24;23.00;93.90
26589;DHT22;14235;48.532;8.722;2023-06-19T08:36:49;23.00;94.20
26589;DHT22;14235;48.532;8.722;2023-06-19T08:39:15;23.10;94.10
26589;DHT22;14235;48.532;8.722;2023-06-19T08:41:42;22.90;93.60
26589;DHT22;14235;48.532;8.722;2023-06-19T08:44:08;23.20;93.60
26589;DHT22;14235;48.532;8.722;2023-06-19T08:46:35;23.20;93.10
26589;DHT22;14235;48.532;8.722;2023-06-19T08:49:03;23.20;92.90
26589;DHT22;14235;48.532;8.722;2023-06-19T08:51:29;23.20;92.70
26589;DHT22;14235;48.532;8.722;2023-06-19T08:54:02;23.30;92.90
26589;DHT22;14235;48.532;8.722;2023-06-19T08:56:29;23.40;92.70
26589;DHT22;14235;48.532;8.722;2023-06-19T09:01:49;23.50;91.90
26589;DHT22;14235;48.532;8.722;2023-06-19T09:25:57;24.50;82.30
26589;DHT22;14235;48.532;8.722;2023-06-19T09:42:59;25.30;76.40
26589;DHT22;14235;48.532;8.722;2023-06-19T09:46:16;25.30;74.10
26589;DHT22;14235;48.532;8.722;2023-06-19T09:48:44;25.40;74.70
26589;DHT22;14235;48.532;8.722;2023-06-19T09:54:21;25.50;75.90
26589;DHT22;14235;48.532;8.722;2023-06-19T09:56:56;25.60;73.40
26589;DHT22;14235;48.532;8.722;2023-06-19T09:59:24;25.60;74.50
26589;DHT22;14235;48.532;8.722;2023-06-19T10:01:58;25.70;75.30
26589;DHT22;14235;48.532;8.722;2023-06-19T10:04:46;25.80;73.40
26589;DHT22;14235;48.532;8.722;2023-06-19T10:07:25;25.80;74.60
26589;DHT22;14235;48.532;8.722;2023-06-19T10:13:46;25.80;73.60
26589;DHT22;14235;48.532;8.722;2023-06-19T10:16:26;26.00;74.00
26589;DHT22;14235;48.532;8.722;2023-06-19T10:26:02;25.90;74.40
26589;DHT22;14235;48.532;8.722;2023-06-19T10:28:32;26.00;75.00
26589;DHT22;14235;48.532;8.722;2023-06-19T10:42:16;26.60;72.50
26589;DHT22;14235;48.532;8.722;2023-06-19T10:44:41;26.50;72.50
26589;DHT22;14235;48.532;8.722;2023-06-19T10:47:07;26.40;71.70
26589;DHT22;14235;48.532;8.722;2023-06-19T10:49:35;26.40;74.30
26589;DHT22;14235;48.532;8.722;2023-06-19T10:52:01;26.40;73.90
26589;DHT22;14235;48.532;8.722;2023-06-19T10:54:29;26.40;75.00
26589;DHT22;14235;48.532;8.722;2023-06-19T11:03:53;26.30;77.10
26589;DHT22;14235;48.532;8.722;2023-06-19T11:06:20;26.40;81.10
26589;DHT22;14235;48.532;8.722;2023-06-19T11:08:51;26.50;87.10
26589;DHT22;14235;48.532;8.722;2023-06-19T11:13:47;26.70;79.50
26589;DHT22;14235;48.532;8.722;2023-06-19T11:16:21;26.70;70.30
26589;DHT22;14235;48.532;8.722;2023-06-19T11:18:47;26.80;70.70
26589;DHT22;14235;48.532;8.722;2023-06-19T11:21:33;26.80;72.40
26589;DHT22;14235;48.532;8.722;2023-06-19T11:24:02;26.80;73.50
26589;DHT22;14235;48.532;8.722;2023-06-19T11:26:50;26.80;71.70
26589;DHT22;14235;48.532;8.722;2023-06-19T11:29:28;26.80;71.40
26589;DHT22;14235;48.532;8.722;2023-06-19T11:32:12;26.90;71.70
26589;DHT22;14235;48.532;8.722;2023-06-19T11:34:39;26.90;69.50
26589;DHT22;14235;48.532;8.722;2023-06-19T11:37:15;27.00;68.90
26589;DHT22;14235;48.532;8.722;2023-06-19T11:39:43;27.00;68.40
26589;DHT22;14235;48.532;8.722;2023-06-19T11:42:09;27.20;67.30
26589;DHT22;14235;48.532;8.722;2023-06-19T11:44:38;27.30;67.10
26589;DHT22;14235;48.532;8.722;2023-06-19T11:47:20;27.40;66.80
26589;DHT22;14235;48.532;8.722;2023-06-19T11:49:50;27.50;67.30
26589;DHT22;14235;48.532;8.722;2023-06-19T11:52:16;27.60;68.20
26589;DHT22;14235;48.532;8.722;2023-06-19T11:54:44;27.70;70.70
26589;DHT22;14235;48.532;8.722;2023-06-19T11:59:40;27.80;54.70
26589;DHT22;14235;48.532;8.722;2023-06-19T12:02:06;27.90;54.20
26589;DHT22;14235;48.532;8.722;2023-06-19T12:04:32;27.90;54.90
26589;DHT22;14235;48.532;8.722;2023-06-19T12:06:58;27.90;54.20
26589;DHT22;14235;48.532;8.722;2023-06-19T12:09:24;27.90;54.20
26589;DHT22;14235;48.532;8.722;2023-06-19T12:11:50;28.00;55.10
26589;DHT22;14235;48.532;8.722;2023-06-19T12:14:15;28.10;54.30
26589;DHT22;14235;48.532;8.722;2023-06-19T12:16:41;28.20;54.30
26589;DHT22;14235;48.532;8.722;2023-06-19T12:19:07;28.30;53.80
26589;DHT22;14235;48.532;8.722;2023-06-19T12:21:33;28.40;54.20
26589;DHT22;14235;48.532;8.722;2023-06-19T12:23:58;28.50;54.60
26589;DHT22;14235;48.532;8.722;2023-06-19T12:26:24;28.60;53.20
26589;DHT22;14235;48.532;8.722;2023-06-19T12:28:51;28.70;54.50
26589;DHT22;14235;48.532;8.722;2023-06-19T12:31:17;28.70;54.50
26589;DHT22;14235;48.532;8.722;2023-06-19T12:33:43;28.80;54.50
26589;DHT22;14235;48.532;8.722;2023-06-19T12:36:13;28.80;54.40
26589;DHT22;14235;48.532;8.722;2023-06-19T12:38:40;28.80;54.00
26589;DHT22;14235;48.532;8.722;2023-06-19T12:41:06;28.80;54.80
26589;DHT22;14235;48.532;8.722;2023-06-19T12:43:32;28.90;55.50
26589;DHT22;14235;48.532;8.722;2023-06-19T12:45:58;28.90;55.70
26589;DHT22;14235;48.532;8.722;2023-06-19T12:48:27;28.90;56.40
26589;DHT22;14235;48.532;8.722;2023-06-19T12:50:53;28.90;56.20
26589;DHT22;14235;48.532;8.722;2023-06-19T12:53:19;28.90;56.80
26589;DHT22;14235;48.532;8.722;2023-06-19T12:55:45;28.90;58.10
26589;DHT22;14235;48.532;8.722;2023-06-19T12:58:11;28.90;57.90
26589;DHT22;14235;48.532;8.722;2023-06-19T13:00:37;29.00;58.80
26589;DHT22;14235;48.532;8.722;2023-06-19T13:03:05;29.00;59.40
26589;DHT22;14235;48.532;8.722;2023-06-19T13:05:30;29.10;60.30
26589;DHT22;14235;48.532;8.722;2023-06-19T13:10:23;29.20;56.40
26589;DHT22;14235;48.532;8.722;2023-06-19T13:12:48;29.30;56.10
26589;DHT22;14235;48.532;8.722;2023-06-19T13:15:14;29.20;56.10
26589;DHT22;14235;48.532;8.722;2023-06-19T13:17:43;29.30;56.10
26589;DHT22;14235;48.532;8.722;2023-06-19T13:20:08;29.20;56.30
26589;DHT22;14235;48.532;8.722;2023-06-19T13:22:34;29.10;55.80
26589;DHT22;14235;48.532;8.722;2023-06-19T13:25:00;28.90;55.50
26589;DHT22;14235;48.532;8.722;2023-06-19T13:27:27;28.80;56.60
26589;DHT22;14235;48.532;8.722;2023-06-19T13:29:54;28.70;57.40
26589;DHT22;14235;48.532;8.722;2023-06-19T13:32:20;28.80;57.80
26589;DHT22;14235;48.532;8.722;2023-06-19T13:34:45;28.80;57.20
26589;DHT22;14235;48.532;8.722;2023-06-19T13:37:11;28.80;57.20
26589;DHT22;14235;48.532;8.722;2023-06-19T13:39:37;28.90;56.50
26589;DHT22;14235;48.532;8.722;2023-06-19T13:42:05;28.90;57.50
26589;DHT22;14235;48.532;8.722;2023-06-19T13:44:31;28.90;57.90
26589;DHT22;14235;48.532;8.722;2023-06-19T13:46:57;28.90;57.40
26589;DHT22;14235;48.532;8.722;2023-06-19T13:51:48;28.80;58.30
26589;DHT22;14235;48.532;8.722;2023-06-19T13:54:14;28.80;64.40
26589;DHT22;14235;48.532;8.722;2023-06-19T13:59:06;28.70;58.80
26589;DHT22;14235;48.532;8.722;2023-06-19T14:01:32;28.70;69.80
26589;DHT22;14235;48.532;8.722;2023-06-19T14:08:51;28.70;68.00
26589;DHT22;14235;48.532;8.722;2023-06-19T14:11:18;28.70;67.60
26589;DHT22;14235;48.532;8.722;2023-06-19T14:13:43;28.80;57.50
26589;DHT22;14235;48.532;8.722;2023-06-19T14:16:09;28.70;59.40
26589;DHT22;14235;48.532;8.722;2023-06-19T14:18:35;28.80;63.20
26589;DHT22;14235;48.532;8.722;2023-06-19T14:21:04;28.90;64.40
26589;DHT22;14235;48.532;8.722;2023-06-19T14:23:29;29.10;66.80
26589;DHT22;14235;48.532;8.722;2023-06-19T14:25:56;29.40;65.20
26589;DHT22;14235;48.532;8.722;2023-06-19T14:28:22;30.30;63.30
26589;DHT22;14235;48.532;8.722;2023-06-19T14:30:47;29.80;76.20
26589;DHT22;14235;48.532;8.722;2023-06-19T14:33:13;29.90;65.00
26589;DHT22;14235;48.532;8.722;2023-06-19T14:35:42;29.90;63.40
26589;DHT22;14235;48.532;8.722;2023-06-19T14:38:14;29.90;63.10
26589;DHT22;14235;48.532;8.722;2023-06-19T14:40:43;30.00;63.70
26589;DHT22;14235;48.532;8.722;2023-06-19T14:43:09;30.20;61.80
26589;DHT22;14235;48.532;8.722;2023-06-19T14:45:35;30.30;60.10
26589;DHT22;14235;48.532;8.722;2023-06-19T14:48:01;30.30;66.90
26589;DHT22;14235;48.532;8.722;2023-06-19T14:50:30;30.30;72.90
26589;DHT22;14235;48.532;8.722;2023-06-19T14:52:58;30.10;68.90
26589;DHT22;14235;48.532;8.722;2023-06-19T14:55:24;30.10;67.40
26589;DHT22;14235;48.532;8.722;2023-06-19T14:57:50;29.90;66.50
26589;DHT22;14235;48.532;8.722;2023-06-19T15:00:21;29.80;65.40
26589;DHT22;14235;48.532;8.722;2023-06-19T15:02:47;29.70;64.60
26589;DHT22;14235;48.532;8.722;2023-06-19T15:05:13;29.50;63.20
26589;DHT22;14235;48.532;8.722;2023-06-19T15:07:41;29.50;65.50
26589;DHT22;14235;48.532;8.722;2023-06-19T15:10:06;29.40;66.90
26589;DHT22;14235;48.532;8.722;2023-06-19T15:12:38;29.50;69.80
26589;DHT22;14235;48.532;8.722;2023-06-19T15:15:04;29.80;69.20
26589;DHT22;14235;48.532;8.722;2023-06-19T15:20:23;30.80;75.00
26589;DHT22;14235;48.532;8.722;2023-06-19T15:22:51;31.70;65.00
26589;DHT22;14235;48.532;8.722;2023-06-19T15:25:19;32.10;62.30
26589;DHT22;14235;48.532;8.722;2023-06-19T15:30:11;33.20;43.50
26589;DHT22;14235;48.532;8.722;2023-06-19T15:32:37;34.00;42.00
26589;DHT22;14235;48.532;8.722;2023-06-19T15:39:55;34.70;37.40
26589;DHT22;14235;48.532;8.722;2023-06-19T15:44:49;35.20;35.80
26589;DHT22;14235;48.532;8.722;2023-06-19T15:49:41;36.00;40.50
26589;DHT22;14235;48.532;8.722;2023-06-19T15:52:06;35.70;43.20
26589;DHT22;14235;48.532;8.722;2023-06-19T15:54:32;35.20;43.90
26589;DHT22;14235;48.532;8.722;2023-06-19T15:56:58;34.50;45.70
26589;DHT22;14235;48.532;8.722;2023-06-19T15:59:24;33.90;47.00
26589;DHT22;14235;48.532;8.722;2023-06-19T16:01:49;33.30;47.90
26589;DHT22;14235;48.532;8.722;2023-06-19T16:04:15;32.70;49.00
26589;DHT22;14235;48.532;8.722;2023-06-19T16:06:41;32.30;50.10
26589;DHT22;14235;48.532;8.722;2023-06-19T16:09:28;31.90;50.50
26589;DHT22;14235;48.532;8.722;2023-06-19T16:11:56;31.60;51.10
26589;DHT22;14235;48.532;8.722;2023-06-19T16:48:31;30.70;55.20
26589;DHT22;14235;48.532;8.722;2023-06-19T16:53:51;31.20;54.60
26589;DHT22;14235;48.532;8.722;2023-06-19T16:56:16;31.50;55.10
26589;DHT22;14235;48.532;8.722;2023-06-19T16:58:42;31.70;55.80
26589;DHT22;14235;48.532;8.722;2023-06-19T17:01:08;31.70;55.00
26589;DHT22;14235;48.532;8.722;2023-06-19T17:03:33;31.70;55.30
26589;DHT22;14235;48.532;8.722;2023-06-19T17:06:04;31.60;55.30
26589;DHT22;14235;48.532;8.722;2023-06-19T17:11:56;31.40;56.60
26589;DHT22;14235;48.532;8.722;2023-06-19T17:14:38;31.10;58.30
26589;DHT22;14235;48.532;8.722;2023-06-19T17:17:40;30.90;61.70
26589;DHT22;14235;48.532;8.722;2023-06-19T17:24:31;30.70;61.20
26589;DHT22;14235;48.532;8.722;2023-06-19T17:33:57;30.50;62.30
26589;DHT22;14235;48.532;8.722;2023-06-19T17:43:29;30.80;64.40
26589;DHT22;14235;48.532;8.722;2023-06-19T17:53:23;31.00;57.90
26589;DHT22;14235;48.532;8.722;2023-06-19T18:06:44;30.90;55.90
26589;DHT22;14235;48.532;8.722;2023-06-19T18:09:51;30.70;56.10
26589;DHT22;14235;48.532;8.722;2023-06-19T18:55:26;27.50;67.70
26589;DHT22;14235;48.532;8.722;2023-06-19T19:14:52;26.80;67.90
26589;DHT22;14235;48.532;8.722;2023-06-19T19:17:17;26.60;68.50
26589;DHT22;14235;48.532;8.722;2023-06-19T19:19:46;26.60;69.40
26589;DHT22;14235;48.532;8.722;2023-06-19T19:22:12;26.60;70.00
26589;DHT22;14235;48.532;8.722;2023-06-19T19:27:43;26.30;71.10
26589;DHT22;14235;48.532;8.722;2023-06-19T19:30:10;26.30;71.60
26589;DHT22;14235;48.532;8.722;2023-06-19T19:32:38;26.20;72.10
26589;DHT22;14235;48.532;8.722;2023-06-19T19:45:10;25.80;75.10
26589;DHT22;14235;48.532;8.722;2023-06-19T19:51:36;25.60;77.30
26589;DHT22;14235;48.532;8.722;2023-06-19T19:56:57;25.30;78.60